Time;durP1;ratioP1;P1;durP2;ratioP2;P2;SDS_P1;SDS_P2;PMS_P1;PMS_P2;Temp;Humidity;BMP_temperature;BMP_pressure;BME280_temperature;BME280_humidity;BME280_pressure;Samples;Min_cycle;Max_cycle;Signal;HPM_P1;HPM_P2
2021/03/31 00:01:33;;;;;;;53.00;31.57;;;;;;;5.83;89.43;99264.63;1799687;78;21102;-71
2021/03/31 00:03:59;;;;;;;53.58;31.55;;;;;;;5.80;89.30;99261.84;1799671;79;21109;-72
2021/03/31 00:06:26;;;;;;;55.55;29.30;;;;;;;5.77;90.28;99258.25;1799618;78;21242;-72
2021/03/31 00:08:52;;;;;;;55.75;31.62;;;;;;;5.76;88.82;99261.98;1799675;79;21557;-72
2021/03/31 00:11:19;;;;;;;58.28;35.95;;;;;;;5.76;89.09;99263.86;1799652;78;21474;-72
2021/03/31 00:13:45;;;;;;;51.15;29.50;;;;;;;5.68;91.38;99256.05;1799663;79;21117;-72
2021/03/31 00:16:11;;;;;;;58.28;35.23;;;;;;;5.74;89.85;99265.95;1799644;78;21030;-72
2021/03/31 00:18:37;;;;;;;50.23;30.92;;;;;;;5.66;90.38;99264.34;1799820;79;21182;-72
2021/03/31 00:21:04;;;;;;;53.80;29.98;;;;;;;5.68;89.37;99256.05;1799680;78;21028;-71
2021/03/31 00:23:31;;;;;;;53.28;28.95;;;;;;;5.66;89.90;99258.44;1799886;79;21499;-72
2021/03/31 00:25:57;;;;;;;42.98;26.70;;;;;;;5.68;89.75;99259.56;1799744;78;21082;-72
2021/03/31 00:28:24;;;;;;;53.10;30.68;;;;;;;5.79;89.66;99259.38;1799808;79;21102;-72
2021/03/31 00:30:50;;;;;;;53.33;32.08;;;;;;;5.73;89.27;99253.02;1798937;78;22158;-72
2021/03/31 00:33:16;;;;;;;52.85;33.13;;;;;;;5.68;89.23;99253.36;1785220;80;21077;-72
2021/03/31 00:35:42;;;;;;;47.62;28.90;;;;;;;5.69;89.26;99253.14;1785219;79;21423;-72
2021/03/31 00:38:09;;;;;;;58.95;34.40;;;;;;;5.82;89.95;99254.92;1785265;79;21098;-72
2021/03/31 00:40:42;;;;;;;53.00;30.88;;;;;;;5.83;90.79;99251.19;1785265;79;21114;-72
2021/03/31 00:43:09;;;;;;;53.85;33.20;;;;;;;5.87;91.17;99248.34;1784107;80;21078;-72
2021/03/31 00:45:35;;;;;;;53.48;33.28;;;;;;;5.93;90.00;99246.98;1785184;79;21502;-72
2021/03/31 00:48:01;;;;;;;51.58;30.10;;;;;;;5.89;89.52;99249.77;1785233;80;21028;-72
2021/03/31 00:50:27;;;;;;;46.80;28.27;;;;;;;5.85;89.68;99249.09;1785306;79;21545;-72
2021/03/31 00:52:54;;;;;;;48.30;29.00;;;;;;;5.82;88.91;99240.13;1755056;80;21055;-72
2021/03/31 00:55:25;;;;;;;44.88;27.32;;;;;;;5.73;89.09;99235.54;1785299;79;21264;-72
2021/03/31 00:57:51;;;;;;;48.17;27.00;;;;;;;5.64;88.62;99236.33;1785158;80;21118;-73
2021/03/31 01:00:18;;;;;;;49.38;28.30;;;;;;;5.58;88.94;99231.81;1785320;79;21495;-72
2021/03/31 01:02:45;;;;;;;46.98;28.05;;;;;;;5.54;89.14;99232.45;1785305;80;21142;-72
2021/03/31 01:05:15;;;;;;;50.70;29.67;;;;;;;5.45;88.45;99229.72;1785228;79;21019;-72
2021/03/31 01:07:41;;;;;;;47.95;28.07;;;;;;;5.32;90.17;99238.19;1784855;80;21196;-72
2021/03/31 01:10:08;;;;;;;38.85;25.12;;;;;;;5.31;88.79;99235.20;1785141;79;21110;-72
2021/03/31 01:12:52;;;;;;;43.02;25.20;;;;;;;5.30;88.64;99230.05;1785336;80;21583;-72
2021/03/31 01:15:40;;;;;;;39.03;24.80;;;;;;;5.27;88.62;99227.25;1785324;79;21495;-71
2021/03/31 01:18:12;;;;;;;50.80;28.87;;;;;;;5.18;90.10;99226.38;1785324;80;21090;-72
2021/03/31 01:21:11;;;;;;;41.95;24.47;;;;;;;5.17;90.48;99226.91;1784900;79;21196;-72
2021/03/31 01:24:24;;;;;;;41.10;22.87;;;;;;;5.17;89.08;99222.87;1749206;80;21083;-73
2021/03/31 01:27:11;;;;;;;44.38;25.60;;;;;;;5.12;88.83;99232.60;1785279;79;21048;-72
2021/03/31 01:30:08;;;;;;;47.10;26.35;;;;;;;5.05;89.33;99232.14;1785159;79;21120;-72
2021/03/31 01:32:51;;;;;;;47.40;27.80;;;;;;;5.07;88.97;99224.69;1748357;80;21122;-72
2021/03/31 01:35:18;;;;;;;49.08;27.82;;;;;;;5.03;88.64;99225.31;1785225;79;22055;-72
2021/03/31 01:37:54;;;;;;;52.75;30.97;;;;;;;4.98;88.78;99221.13;1785251;79;21153;-72
2021/03/31 01:40:22;;;;;;;49.45;27.93;;;;;;;5.01;88.83;99226.05;1783778;79;21071;-72
2021/03/31 01:42:55;;;;;;;51.25;29.15;;;;;;;4.99;88.87;99226.27;1785197;80;21130;-72
2021/03/31 01:45:25;;;;;;;52.50;30.95;;;;;;;4.94;89.14;99226.60;1754701;80;21055;-72
2021/03/31 01:47:51;;;;;;;50.88;28.55;;;;;;;4.83;90.82;99226.76;1785332;80;21254;-72
2021/03/31 01:50:18;;;;;;;51.80;29.87;;;;;;;4.88;90.20;99228.82;1785182;79;21463;-72
2021/03/31 01:52:44;;;;;;;54.33;30.97;;;;;;;4.87;90.14;99228.48;1785175;80;21165;-72
2021/03/31 01:55:13;;;;;;;50.75;28.70;;;;;;;4.89;90.30;99230.46;1785166;79;21066;-72
2021/03/31 01:57:39;;;;;;;46.90;25.32;;;;;;;4.93;89.50;99227.12;1785291;80;21031;-72
2021/03/31 02:00:07;;;;;;;46.18;28.12;;;;;;;4.93;89.34;99227.12;1785270;79;21536;-72
2021/03/31 02:02:34;;;;;;;48.65;25.62;;;;;;;4.90;89.77;99225.39;1785175;80;21514;-72
2021/03/31 02:05:00;;;;;;;45.58;26.12;;;;;;;4.95;89.32;99229.59;1785161;79;21047;-72
2021/03/31 02:07:26;;;;;;;52.50;27.40;;;;;;;4.89;90.01;99232.63;1785263;80;21463;-72
2021/03/31 02:09:52;;;;;;;53.08;30.17;;;;;;;4.89;90.72;99229.94;1785188;79;21023;-72
2021/03/31 02:12:21;;;;;;;50.05;27.77;;;;;;;4.91;91.25;99224.35;1785208;80;21194;-72
2021/03/31 02:14:48;;;;;;;48.20;27.45;;;;;;;4.95;90.72;99229.59;1785273;79;21606;-72
2021/03/31 02:17:24;;;;;;;51.98;29.90;;;;;;;4.99;89.92;99228.95;1785138;80;21453;-72
2021/03/31 02:19:50;;;;;;;51.45;26.05;;;;;;;4.98;90.36;99223.80;1785281;79;21496;-71
2021/03/31 02:22:19;;;;;;;46.77;27.73;;;;;;;5.01;89.42;99226.05;1785167;79;21079;-72
2021/03/31 02:24:45;;;;;;;49.80;29.15;;;;;;;4.85;90.85;99226.54;1785304;79;21485;-72
2021/03/31 02:27:13;;;;;;;48.58;26.82;;;;;;;4.89;90.59;99226.44;1785066;80;21416;-72
2021/03/31 02:29:40;;;;;;;48.25;26.15;;;;;;;4.91;90.05;99221.14;1785231;79;21067;-72
2021/03/31 02:32:07;;;;;;;49.38;25.43;;;;;;;4.93;89.34;99220.92;1789319;79;21466;-72
2021/03/31 02:34:35;;;;;;;42.90;25.02;;;;;;;4.89;89.28;99216.52;1799715;78;21097;-72
2021/03/31 02:37:03;;;;;;;50.60;29.63;;;;;;;4.85;89.53;99224.67;1799676;79;21243;-72
2021/03/31 02:39:29;;;;;;;47.93;25.97;;;;;;;4.81;90.17;99227.50;1799672;78;21083;-72
2021/03/31 02:41:56;;;;;;;45.83;23.00;;;;;;;4.82;89.20;99226.45;1799686;79;21040;-72
2021/03/31 02:44:22;;;;;;;41.75;23.75;;;;;;;4.77;88.80;99218.20;1799675;79;21082;-72
2021/03/31 02:46:49;;;;;;;46.98;25.40;;;;;;;4.74;89.01;99222.66;1799742;78;21173;-72
2021/03/31 02:49:15;;;;;;;41.08;23.32;;;;;;;4.65;90.35;99216.71;1773080;79;21196;-72
2021/03/31 02:51:41;;;;;;;46.08;24.52;;;;;;;4.67;89.82;99220.52;1799630;78;21423;-72
2021/03/31 02:54:08;;;;;;;47.00;26.60;;;;;;;4.62;89.46;99217.66;1799697;79;21101;-72
2021/03/31 02:56:35;;;;;;;48.20;28.77;;;;;;;4.61;89.15;99219.50;1799620;78;21522;-72
2021/03/31 02:59:01;;;;;;;45.73;25.10;;;;;;;4.58;90.96;99221.80;1799686;79;21109;-72
2021/03/31 03:01:28;;;;;;;49.70;27.52;;;;;;;4.65;90.04;99215.37;1771761;79;21190;-72
2021/03/31 03:03:57;;;;;;;43.65;26.95;;;;;;;4.68;90.96;99215.45;1799681;79;21157;-73
2021/03/31 03:06:26;;;;;;;37.03;21.50;;;;;;;4.72;91.35;99212.14;1799754;78;21038;-72
2021/03/31 03:08:55;;;;;;;44.58;23.52;;;;;;;4.74;90.52;99211.92;1799274;79;21045;-72
2021/03/31 03:11:25;;;;;;;40.78;21.62;;;;;;;4.73;91.26;99212.45;1773355;79;26700;-72
2021/03/31 03:13:51;;;;;;;37.08;20.62;;;;;;;4.79;91.54;99212.95;1799756;79;22041;-72
2021/03/31 03:16:17;;;;;;;55.95;27.48;;;;;;;4.83;90.89;99215.20;1772832;79;21086;-72
2021/03/31 03:18:43;;;;;;;50.73;27.98;;;;;;;4.83;90.24;99212.51;1799698;79;21420;-72
2021/03/31 03:21:11;;;;;;;55.78;30.37;;;;;;;4.88;89.96;99216.73;1799612;78;21073;-72
2021/03/31 03:23:37;;;;;;;43.42;25.10;;;;;;;4.84;90.71;99217.66;1799687;79;21102;-72
2021/03/31 03:26:03;;;;;;;62.67;29.27;;;;;;;4.83;89.87;99209.30;1799743;78;22236;-72
2021/03/31 03:28:30;;;;;;;69.35;33.63;;;;;;;4.79;90.16;99208.92;1799660;79;21419;-72
2021/03/31 03:30:56;;;;;;;59.67;30.95;;;;;;;4.76;89.99;99206.64;1799600;78;21126;-72
2021/03/31 03:33:22;;;;;;;47.80;26.73;;;;;;;4.69;89.72;99202.33;1799637;79;21055;-72
2021/03/31 03:35:48;;;;;;;47.60;27.95;;;;;;;4.68;89.37;99202.03;1799787;78;21090;-72
2021/03/31 03:38:14;;;;;;;54.15;30.43;;;;;;;4.60;89.38;99197.72;1799708;79;21490;-72
2021/03/31 03:40:43;;;;;;;48.90;25.72;;;;;;;4.56;90.28;99197.85;1799598;78;21034;-72
2021/03/31 03:43:08;;;;;;;63.00;31.60;;;;;;;4.59;90.34;99196.59;1799389;79;21100;-72
2021/03/31 03:45:35;;;;;;;67.92;36.45;;;;;;;4.54;90.87;99201.27;1799725;78;21126;-72
2021/03/31 03:48:01;;;;;;;59.53;33.48;;;;;;;4.56;90.20;99200.53;1799653;79;21002;-72
2021/03/31 03:50:27;;;;;;;50.52;26.55;;;;;;;4.58;89.92;99202.48;1799639;78;21182;-73
2021/03/31 03:52:53;;;;;;;55.63;28.10;;;;;;;4.60;89.73;99199.06;1798667;79;21066;-71
2021/03/31 03:55:24;;;;;;;49.60;27.42;;;;;;;4.57;89.49;99195.47;1798816;79;21039;-65
2021/03/31 03:57:50;;;;;;;57.13;28.20;;;;;;;4.55;89.41;99198.06;1798121;79;21106;-66
2021/03/31 04:00:20;;;;;;;47.70;27.42;;;;;;;4.55;89.60;99194.04;1798155;79;21092;-66
2021/03/31 04:02:56;;;;;;;45.58;26.12;;;;;;;4.59;89.56;99193.39;1772627;79;21479;-66
2021/03/31 04:05:23;;;;;;;61.98;31.57;;;;;;;4.68;90.17;99199.34;1799730;78;21054;-65
2021/03/31 04:07:50;;;;;;;52.03;25.90;;;;;;;4.75;90.42;99196.94;1773011;80;21060;-67
2021/03/31 04:10:18;;;;;;;45.95;25.80;;;;;;;4.72;89.50;99197.38;1756010;80;21103;-66
2021/03/31 04:12:44;;;;;;;54.23;27.67;;;;;;;4.67;89.28;99198.52;1761742;81;21104;-66
2021/03/31 04:15:10;;;;;;;50.98;26.62;;;;;;;4.59;89.10;99190.70;1780375;79;21082;-66
2021/03/31 04:17:41;;;;;;;56.28;27.05;;;;;;;4.50;89.69;99196.83;1760509;81;21094;-66
2021/03/31 04:20:09;;;;;;;49.60;24.82;;;;;;;4.46;89.12;99190.25;1734177;81;21484;-73
2021/03/31 04:22:35;;;;;;;54.37;28.27;;;;;;;4.42;88.80;99189.52;1760331;81;21484;-70
2021/03/31 04:25:01;;;;;;;51.18;28.83;;;;;;;4.42;89.11;99189.00;1759854;81;21552;-71
2021/03/31 04:27:28;;;;;;;45.00;22.55;;;;;;;4.43;89.73;99187.97;1733848;81;21101;-70
2021/03/31 04:29:54;;;;;;;40.38;24.02;;;;;;;4.42;89.32;99186.32;1759846;81;21103;-70
2021/03/31 04:32:20;;;;;;;39.95;22.00;;;;;;;4.40;89.57;99188.41;1758357;81;21593;-71
2021/03/31 04:34:46;;;;;;;44.38;22.15;;;;;;;4.40;89.20;99184.89;1749129;81;21681;-71
2021/03/31 04:37:15;;;;;;;43.73;25.48;;;;;;;4.41;89.33;99186.02;1749038;82;21158;-70
2021/03/31 04:39:42;;;;;;;44.88;22.25;;;;;;;4.45;90.68;99189.95;1749181;82;21524;-70
2021/03/31 04:42:14;;;;;;;41.58;22.77;;;;;;;4.49;89.69;99185.79;1748981;82;21134;-70
2021/03/31 04:44:40;;;;;;;47.00;23.40;;;;;;;4.51;89.31;99184.23;1748878;82;21115;-70
2021/03/31 04:47:07;;;;;;;59.77;28.90;;;;;;;4.52;89.39;99183.19;1719603;82;21154;-70
2021/03/31 04:49:33;;;;;;;45.67;25.12;;;;;;;4.49;90.06;99184.45;1748584;81;21133;-70
2021/03/31 04:51:59;;;;;;;54.10;26.97;;;;;;;4.54;89.36;99189.19;1748727;82;22188;-70
2021/03/31 04:54:25;;;;;;;45.12;24.45;;;;;;;4.47;89.81;99191.89;1748983;81;21154;-70
2021/03/31 04:56:51;;;;;;;42.88;23.77;;;;;;;4.48;89.06;99192.20;1749172;82;21139;-70
2021/03/31 04:59:17;;;;;;;46.30;22.58;;;;;;;4.46;89.60;99194.80;1749048;82;21083;-70
2021/03/31 05:01:43;;;;;;;61.28;25.60;;;;;;;4.45;89.10;99194.49;1749122;82;21040;-70
2021/03/31 05:04:09;;;;;;;51.85;25.12;;;;;;;4.49;89.28;99195.19;1749075;81;21199;-70
2021/03/31 05:06:36;;;;;;;38.50;22.07;;;;;;;4.53;89.10;99191.05;1748623;82;21492;-70
2021/03/31 05:09:02;;;;;;;42.30;21.75;;;;;;;4.57;89.21;99191.96;1749155;82;21440;-70
2021/03/31 05:11:29;;;;;;;47.08;22.98;;;;;;;4.62;89.25;99188.95;1749142;82;21531;-70
2021/03/31 05:13:55;;;;;;;37.67;21.37;;;;;;;4.68;89.13;99192.63;1749110;81;21122;-70
2021/03/31 05:16:21;;;;;;;35.98;19.95;;;;;;;4.71;89.03;99195.73;1749076;82;21142;-70
2021/03/31 05:18:47;;;;;;;39.50;20.17;;;;;;;4.72;88.92;99195.21;1749026;81;21527;-70
2021/03/31 05:21:13;;;;;;;33.70;20.57;;;;;;;4.73;88.95;99195.52;1749136;82;21432;-70
2021/03/31 05:23:40;;;;;;;37.05;20.32;;;;;;;4.75;88.93;99193.43;1749030;82;21139;-70
2021/03/31 05:26:06;;;;;;;38.58;22.40;;;;;;;4.81;89.06;99194.75;1749073;82;21063;-70
2021/03/31 05:28:32;;;;;;;40.17;24.82;;;;;;;4.84;89.17;99193.48;1749060;82;21459;-70
2021/03/31 05:30:58;;;;;;;42.53;24.85;;;;;;;4.92;89.17;99197.80;1749073;81;21523;-70
2021/03/31 05:33:24;;;;;;;54.27;26.70;;;;;;;4.95;88.87;99200.86;1751459;81;21138;-70
2021/03/31 05:35:50;;;;;;;45.23;23.85;;;;;;;4.94;89.96;99197.05;1754732;81;21101;-70
2021/03/31 05:38:17;;;;;;;55.70;25.70;;;;;;;5.01;89.87;99198.67;1754746;81;21115;-70
2021/03/31 05:40:43;;;;;;;40.92;23.50;;;;;;;5.12;89.41;99199.84;1754675;81;22049;-70
2021/03/31 05:43:09;;;;;;;41.53;25.50;;;;;;;5.26;88.69;99189.84;1754566;81;21102;-70
2021/03/31 05:45:35;;;;;;;49.35;26.87;;;;;;;5.34;88.76;99190.93;1754647;81;21118;-70
2021/03/31 05:48:02;;;;;;;52.05;26.52;;;;;;;5.41;89.21;99194.92;1754725;81;21031;-70
2021/03/31 05:50:29;;;;;;;51.00;28.05;;;;;;;5.48;88.88;99190.33;1754675;81;21130;-70
2021/03/31 05:52:56;;;;;;;46.08;24.95;;;;;;;5.60;88.95;99189.91;1754694;81;22019;-70
2021/03/31 05:55:22;;;;;;;54.53;29.65;;;;;;;5.69;88.62;99191.80;1754583;81;21063;-70
2021/03/31 05:57:48;;;;;;;48.15;24.77;;;;;;;5.68;88.46;99184.27;1754638;81;21138;-70
2021/03/31 06:00:18;;;;;;;62.62;29.25;;;;;;;5.68;88.53;99182.91;1754625;81;21169;-70
2021/03/31 06:02:45;;;;;;;53.17;31.87;;;;;;;5.65;88.67;99187.41;1754615;81;21161;-71
2021/03/31 06:05:12;;;;;;;53.48;30.25;;;;;;;5.72;88.82;99183.28;1727030;81;21101;-71
2021/03/31 06:07:43;;;;;;;50.78;29.63;;;;;;;5.79;88.79;99180.84;1754611;81;21507;-70
2021/03/31 06:10:26;;;;;;;64.05;35.88;;;;;;;5.89;88.45;99181.16;1754648;81;21153;-71
2021/03/31 06:12:57;;;;;;;53.70;28.75;;;;;;;5.82;88.39;99175.56;1754572;81;21122;-70
2021/03/31 06:15:41;;;;;;;54.18;29.02;;;;;;;5.95;88.65;99183.53;1754708;81;21042;-70
2021/03/31 06:18:12;;;;;;;52.40;27.70;;;;;;;6.03;88.34;99173.83;1754634;81;21198;-70
2021/03/31 06:20:45;;;;;;;52.33;23.75;;;;;;;6.23;88.32;99177.13;1754688;81;21086;-70
2021/03/31 06:26:33;;;;;;;36.48;20.75;;;;;;;6.55;88.26;99168.91;1754607;81;21118;-70
2021/03/31 06:29:07;;;;;;;35.40;21.77;;;;;;;6.86;88.59;99169.25;1754728;81;21682;-70
2021/03/31 06:31:42;;;;;;;37.53;19.02;;;;;;;7.10;88.00;99162.09;1754622;81;21138;-70
2021/03/31 06:34:18;;;;;;;37.60;20.35;;;;;;;7.20;87.57;99161.53;1761305;81;21113;-69
2021/03/31 06:36:49;;;;;;;33.83;22.62;;;;;;;7.41;87.97;99156.94;1764663;81;21574;-71
2021/03/31 06:39:19;;;;;;;36.60;23.95;;;;;;;7.56;87.67;99159.20;1765287;81;21141;-71
2021/03/31 06:42:00;;;;;;;47.15;26.00;;;;;;;7.62;87.34;99148.84;1765654;81;21109;-71
2021/03/31 06:49:55;;;;;;;42.40;27.32;;;;;;;8.89;85.58;99145.41;1841132;75;22694;-70
2021/03/31 06:52:21;;;;;;;38.67;24.87;;;;;;;9.15;85.21;99135.34;1785900;80;21116;-70
2021/03/31 06:54:57;;;;;;;36.33;22.98;;;;;;;9.69;85.21;99138.41;1785962;79;21197;-70
2021/03/31 06:57:29;;;;;;;33.83;24.80;;;;;;;10.07;84.30;99140.33;1785797;80;20999;-70
2021/03/31 07:00:11;;;;;;;35.85;24.82;;;;;;;10.45;83.20;99136.01;1785974;79;21413;-70
2021/03/31 07:02:45;;;;;;;49.67;27.95;;;;;;;11.11;83.62;99129.98;1785925;80;21598;-70
2021/03/31 07:05:12;;;;;;;35.95;24.60;;;;;;;11.74;82.51;99118.03;1786028;79;20983;-71
2021/03/31 07:07:45;;;;;;;28.25;23.02;;;;;;;12.36;81.09;99126.86;1755769;80;21483;-70
2021/03/31 07:10:14;;;;;;;31.77;21.65;;;;;;;12.91;79.90;99125.46;1785920;79;21441;-70
2021/03/31 07:12:49;;;;;;;29.87;22.07;;;;;;;13.41;78.66;99122.01;1785846;80;21073;-69
2021/03/31 07:15:22;;;;;;;37.50;23.00;;;;;;;13.70;78.25;99123.66;1785939;79;21106;-70
2021/03/31 07:17:54;;;;;;;27.50;21.33;;;;;;;14.06;76.50;99120.89;1785470;80;21097;-70
2021/03/31 07:20:22;;;;;;;28.62;20.15;;;;;;;14.69;75.30;99121.25;1756840;80;21199;-69
2021/03/31 07:22:52;;;;;;;26.12;20.95;;;;;;;15.20;74.36;99114.96;1785366;79;21145;-70
2021/03/31 07:25:22;;;;;;;31.52;23.73;;;;;;;15.60;73.25;99113.59;1785855;79;21058;-70
2021/03/31 07:27:49;;;;;;;27.62;21.62;;;;;;;16.25;70.26;99112.18;1785934;80;21182;-70
2021/03/31 07:30:22;;;;;;;44.18;22.60;;;;;;;16.62;68.59;99118.86;1785821;79;21134;-70
2021/03/31 07:33:04;;;;;;;36.08;21.55;;;;;;;16.87;65.88;99117.75;1785925;79;21190;-71
2021/03/31 07:38:18;;;;;;;34.50;21.02;;;;;;;17.51;64.36;99110.77;1847288;76;22744;-71
2021/03/31 07:40:45;;;;;;;21.45;16.57;;;;;;;18.12;62.82;99105.65;1800731;78;21063;-70
2021/03/31 07:43:17;;;;;;;39.42;19.25;;;;;;;18.35;59.77;99109.30;1785873;80;21285;-70
2021/03/31 07:45:57;;;;;;;25.82;19.15;;;;;;;18.30;62.11;99108.86;1755176;80;21103;-70
2021/03/31 07:48:23;;;;;;;26.35;19.80;;;;;;;18.60;60.25;99102.49;1781911;80;21113;-70
2021/03/31 07:50:49;;;;;;;24.30;18.55;;;;;;;19.47;59.40;99104.70;1755356;80;21495;-70
2021/03/31 07:53:15;;;;;;;22.37;17.62;;;;;;;19.95;57.14;99097.46;1785845;80;21130;-70
2021/03/31 07:55:49;;;;;;;22.32;17.02;;;;;;;20.19;56.94;99100.42;1785915;79;21197;-70
2021/03/31 07:58:28;;;;;;;26.90;19.12;;;;;;;20.30;56.26;99099.00;1785785;79;20964;-71
2021/03/31 08:01:00;;;;;;;25.32;18.77;;;;;;;20.51;54.23;99095.97;1758277;80;21523;-71
2021/03/31 08:03:29;;;;;;;25.43;17.12;;;;;;;21.40;53.57;99097.41;1785980;79;21511;-72
2021/03/31 08:06:15;;;;;;;21.80;17.10;;;;;;;22.15;51.01;99093.01;1755762;80;21392;-72
2021/03/31 08:08:51;;;;;;;28.50;17.65;;;;;;;22.21;50.91;99090.28;1785971;80;22035;-71
2021/03/31 08:11:42;;;;;;;22.10;18.12;;;;;;;22.96;50.24;99087.81;1785694;79;21055;-72
2021/03/31 08:14:17;;;;;;;26.73;15.48;;;;;;;23.41;48.15;99089.90;1755346;80;21483;-72
2021/03/31 08:16:47;;;;;;;22.40;13.90;;;;;;;24.08;45.47;99076.31;1780745;80;21083;-72
2021/03/31 08:19:20;;;;;;;20.80;15.85;;;;;;;24.42;42.17;99070.38;1785934;79;21502;-72
2021/03/31 08:21:48;;;;;;;22.50;14.73;;;;;;;24.02;44.42;99061.09;1785774;79;21185;-72
2021/03/31 08:24:16;;;;;;;24.30;16.82;;;;;;;24.70;39.93;99059.42;1785758;80;20995;-72
2021/03/31 08:26:47;;;;;;;22.40;15.40;;;;;;;24.35;42.41;99055.48;1786096;79;21503;-72
2021/03/31 08:29:25;;;;;;;23.73;15.75;;;;;;;25.14;39.73;99057.39;1785840;80;21133;-72
2021/03/31 08:31:58;;;;;;;31.27;15.55;;;;;;;25.16;41.53;99060.03;1785933;79;21149;-71
2021/03/31 08:34:24;;;;;;;32.78;16.97;;;;;;;25.72;40.73;99055.08;1785954;80;21300;-71
2021/03/31 08:36:51;;;;;;;22.87;16.40;;;;;;;26.14;40.41;99051.23;1785596;79;21118;-71
2021/03/31 08:39:17;;;;;;;21.23;15.23;;;;;;;27.02;39.06;99043.43;1785796;80;21142;-72
2021/03/31 08:41:45;;;;;;;24.25;16.07;;;;;;;27.58;38.11;99028.28;1785733;79;21083;-72
2021/03/31 08:44:34;;;;;;;19.45;14.65;;;;;;;28.26;37.07;99029.73;1755554;80;21103;-72
2021/03/31 08:47:15;;;;;;;41.40;22.80;;;;;;;28.03;34.53;99038.13;1785892;80;21186;-72
2021/03/31 08:49:42;;;;;;;37.35;21.23;;;;;;;28.55;33.59;99041.38;1785171;79;21110;-72
2021/03/31 08:52:11;;;;;;;38.00;23.02;;;;;;;29.24;33.07;99028.02;1785466;80;21035;-72
2021/03/31 08:54:41;;;;;;;34.25;22.55;;;;;;;29.71;32.44;99021.80;1785206;79;21510;-72
2021/03/31 08:57:26;;;;;;;31.17;22.50;;;;;;;30.45;30.17;99018.09;1785324;80;21412;-72
2021/03/31 08:59:56;;;;;;;20.40;15.72;;;;;;;30.59;31.44;99018.20;1755180;79;21271;-71
2021/03/31 09:02:31;;;;;;;26.73;15.90;;;;;;;31.28;30.43;99015.22;1785139;80;21531;-73
2021/03/31 09:04:59;;;;;;;19.42;15.28;;;;;;;31.36;30.17;99012.05;1785242;79;21027;-72
2021/03/31 09:07:25;;;;;;;30.43;16.27;;;;;;;29.05;30.68;99006.64;1785467;80;21007;-73
2021/03/31 09:09:51;;;;;;;25.15;16.62;;;;;;;27.24;33.48;99009.34;1785350;79;21417;-72
2021/03/31 09:12:22;;;;;;;23.42;15.85;;;;;;;25.64;32.99;99001.35;1785193;80;21231;-71
2021/03/31 09:14:50;;;;;;;24.18;16.65;;;;;;;24.86;35.43;98999.89;1785259;79;21186;-72
2021/03/31 09:17:28;;;;;;;25.45;16.20;;;;;;;23.90;36.56;98994.06;1785412;80;21428;-71
2021/03/31 09:19:59;;;;;;;24.45;16.55;;;;;;;22.93;37.72;99000.88;1785366;79;21051;-71
2021/03/31 09:22:28;;;;;;;26.45;16.73;;;;;;;22.40;38.85;98989.13;1785339;80;21507;-70
2021/03/31 09:24:58;;;;;;;27.22;15.63;;;;;;;21.63;39.47;98991.06;1785240;79;22123;-71
2021/03/31 09:27:29;;;;;;;23.85;14.07;;;;;;;21.33;40.59;98988.77;1785154;80;21138;-70
2021/03/31 09:29:56;;;;;;;24.63;17.17;;;;;;;21.19;40.44;98983.97;1785201;79;21051;-70
2021/03/31 09:35:13;;;;;;;27.45;17.95;;;;;;;20.50;43.42;98981.45;1838470;76;23198;-70
2021/03/31 09:37:42;;;;;;;24.02;15.70;;;;;;;20.22;43.76;98980.88;1785446;80;20916;-70
2021/03/31 09:40:09;;;;;;;23.18;15.43;;;;;;;19.97;44.13;98976.11;1786073;79;22263;-70
2021/03/31 09:42:39;;;;;;;30.48;16.23;;;;;;;19.79;44.39;98967.55;1785820;80;21099;-70
2021/03/31 09:45:10;;;;;;;24.00;16.05;;;;;;;19.65;45.80;98967.64;1785903;79;21429;-70
2021/03/31 09:47:37;;;;;;;26.48;14.90;;;;;;;19.48;45.59;98968.33;1785987;80;21480;-71
2021/03/31 09:50:10;;;;;;;26.68;15.18;;;;;;;19.36;46.04;98970.86;1755614;80;21396;-70
2021/03/31 09:52:36;;;;;;;29.82;18.27;;;;;;;19.31;46.20;98965.48;1785531;80;21087;-71
2021/03/31 09:55:12;;;;;;;26.75;15.60;;;;;;;19.08;46.93;98967.45;1785822;79;21059;-69
2021/03/31 09:57:40;;;;;;;22.73;13.95;;;;;;;19.01;47.23;98965.14;1785878;80;21518;-70
2021/03/31 10:00:09;;;;;;;23.85;15.08;;;;;;;18.95;48.60;98968.31;1785971;79;21583;-71
2021/03/31 10:02:36;;;;;;;;;;;;;;;18.73;47.77;98958.15;1788597;80;21483;-70
2021/03/31 10:05:04;;;;;;;26.97;14.83;;;;;;;18.64;49.41;98953.12;1755499;80;21162;-70
2021/03/31 10:07:31;;;;;;;21.55;14.28;;;;;;;18.68;49.75;98952.20;1786023;80;21483;-70
2021/03/31 10:09:57;;;;;;;22.65;14.03;;;;;;;18.72;48.69;98947.73;1785886;79;21046;-70
2021/03/31 10:12:28;;;;;;;23.30;13.48;;;;;;;18.77;48.79;98950.90;1785917;80;21162;-71
2021/03/31 10:14:57;;;;;;;27.13;13.80;;;;;;;18.81;48.83;98945.05;1756163;79;21011;-70
2021/03/31 10:17:25;;;;;;;23.55;14.03;;;;;;;18.87;48.80;98946.53;1785287;80;21265;-70
2021/03/31 10:19:52;;;;;;;23.18;13.98;;;;;;;18.90;48.97;98939.06;1785877;79;21436;-69
2021/03/31 10:22:19;;;;;;;22.87;13.75;;;;;;;18.82;48.45;98937.88;1785839;80;21110;-70
2021/03/31 10:24:48;;;;;;;18.02;9.80;;;;;;;18.91;48.97;98936.56;1785883;79;20948;-69
2021/03/31 10:27:16;;;;;;;18.42;9.50;;;;;;;18.92;49.15;98933.25;1785849;80;21067;-70
2021/03/31 10:29:51;;;;;;;22.15;11.22;;;;;;;18.98;48.70;98928.70;1785913;79;21246;-70
2021/03/31 10:32:22;;;;;;;17.10;10.93;;;;;;;19.02;48.77;98926.94;1785481;80;21091;-69
2021/03/31 10:34:53;;;;;;;18.40;12.25;;;;;;;19.04;48.90;98923.31;1794927;78;21173;-70
2021/03/31 10:37:32;;;;;;;22.75;12.98;;;;;;;19.11;48.88;98917.38;1797905;79;21511;-70
2021/03/31 10:56:32;;;;;;;17.32;10.90;;;;;;;19.39;48.48;98900.95;1797339;78;22043;-70
2021/03/31 10:58:58;;;;;;;18.07;10.68;;;;;;;19.47;48.22;98891.70;1797262;79;21521;-70
2021/03/31 11:01:25;;;;;;;17.70;11.57;;;;;;;19.51;48.84;98889.95;1797235;78;21030;-70
2021/03/31 11:03:51;;;;;;;19.48;11.08;;;;;;;19.53;48.24;98892.62;1797260;79;21502;-70
2021/03/31 11:06:17;;;;;;;18.37;9.50;;;;;;;19.60;48.92;98883.95;1797245;78;21027;-70
2021/03/31 11:08:43;;;;;;;27.42;12.80;;;;;;;19.68;48.80;98879.05;1797219;79;21178;-70
2021/03/31 11:11:10;;;;;;;16.37;10.60;;;;;;;19.74;49.00;98879.16;1797168;78;21102;-70
2021/03/31 11:13:37;;;;;;;14.33;9.68;;;;;;;19.66;47.18;98875.82;1797256;79;21420;-70
2021/03/31 11:16:09;;;;;;;14.18;8.08;;;;;;;19.69;47.33;98873.23;1797241;78;21014;-70
2021/03/31 11:18:52;;;;;;;45.52;29.20;;;;;;;19.76;46.97;98867.84;1797235;79;21038;-69
2021/03/31 11:22:00;;;;;;;20.37;8.15;;;;;;;19.81;47.46;98862.17;1796445;78;21415;-70
2021/03/31 11:26:36;;;;;;;10.70;6.40;;;;;;;19.94;46.69;98857.12;1797237;78;21058;-70
2021/03/31 11:29:03;;;;;;;21.52;11.55;;;;;;;19.96;46.18;98858.41;1797223;79;21048;-70
2021/03/31 11:31:29;;;;;;;17.70;10.60;;;;;;;20.04;45.79;98849.92;1797333;78;21475;-70
2021/03/31 11:33:55;;;;;;;17.60;10.78;;;;;;;20.13;47.26;98845.81;1797179;79;21190;-69
2021/03/31 11:36:21;;;;;;;23.32;15.68;;;;;;;20.18;47.32;98847.04;1797238;78;21163;-69
2021/03/31 11:38:47;;;;;;;24.82;13.32;;;;;;;20.21;47.08;98839.50;1797187;79;21027;-70
2021/03/31 11:41:13;;;;;;;26.90;16.20;;;;;;;20.21;46.56;98840.31;1797299;78;21428;-70
2021/03/31 11:43:39;;;;;;;27.25;14.35;;;;;;;20.28;47.27;98833.77;1797308;79;21391;-70
2021/03/31 11:46:05;;;;;;;23.73;12.05;;;;;;;20.42;47.23;98830.02;1797177;78;21253;-70
2021/03/31 11:48:32;;;;;;;18.70;11.53;;;;;;;20.42;46.33;98825.32;1797232;79;20984;-70
2021/03/31 11:50:58;;;;;;;22.30;12.43;;;;;;;20.29;45.67;98822.19;1797190;78;21145;-70
2021/03/31 11:53:29;;;;;;;17.73;11.10;;;;;;;20.34;46.18;98818.45;1797166;79;21090;-70
2021/03/31 11:55:52;;;;;;;18.43;10.00;;;;;;;20.30;45.66;98821.05;1796851;78;21470;-71
2021/03/31 11:58:18;;;;;;;16.37;10.15;;;;;;;20.31;46.10;98813.03;1797244;79;22043;-71
2021/03/31 12:00:44;;;;;;;17.60;9.85;;;;;;;20.32;45.83;98817.41;1797123;78;21018;-71
2021/03/31 12:03:11;;;;;;;17.35;10.55;;;;;;;20.35;46.37;98811.84;1797155;79;21574;-72
2021/03/31 12:05:37;;;;;;;22.62;12.05;;;;;;;20.36;46.67;98807.95;1797061;78;21046;-71